createdAt,value
2019-02-17T00:01:24.225Z,80.96
2019-02-17T00:03:53.724Z,81.05
2019-02-17T00:06:23.072Z,81.08
2019-02-17T00:08:52.259Z,81.20
2019-02-17T00:11:21.678Z,81.24
2019-02-17T00:13:50.900Z,81.28
2019-02-17T00:16:20.142Z,81.37
2019-02-17T00:18:49.432Z,81.33
2019-02-17T00:21:18.692Z,81.28
2019-02-17T00:23:47.914Z,81.23
2019-02-17T00:26:17.322Z,81.37
2019-02-17T00:28:46.595Z,81.51
2019-02-17T00:31:15.799Z,81.49
2019-02-17T00:33:45.226Z,81.47
2019-02-17T00:36:14.580Z,81.67
2019-02-17T00:38:43.810Z,81.64
2019-02-17T00:41:13.101Z,81.71
2019-02-17T00:43:42.355Z,81.58
2019-02-17T00:46:11.548Z,81.66
2019-02-17T00:48:41.016Z,81.65
2019-02-17T00:51:10.383Z,81.59
2019-02-17T00:53:39.576Z,81.54
2019-02-17T00:56:09.122Z,81.51
2019-02-17T00:58:38.357Z,81.57
2019-02-17T01:01:07.756Z,81.51
2019-02-17T01:03:37.182Z,81.52
2019-02-17T01:06:07.216Z,81.53
2019-02-17T01:08:36.396Z,81.62
2019-02-17T01:11:05.853Z,81.61
2019-02-17T01:13:35.107Z,81.55
2019-02-17T01:16:04.304Z,81.53
2019-02-17T01:18:33.613Z,81.55
2019-02-17T01:21:02.833Z,81.50
2019-02-17T01:23:32.025Z,81.56
2019-02-17T01:26:01.442Z,81.59
2019-02-17T01:28:30.653Z,81.67
2019-02-17T01:30:59.894Z,81.63
2019-02-17T01:33:29.182Z,81.59
2019-02-17T01:35:58.541Z,81.59
2019-02-17T01:38:28.754Z,81.59
2019-02-17T01:40:58.169Z,81.55
2019-02-17T01:43:27.547Z,81.56
2019-02-17T01:45:56.745Z,81.54
2019-02-17T01:48:26.155Z,81.63
2019-02-17T01:50:58.980Z,81.83
2019-02-17T01:53:28.548Z,81.94
2019-02-17T01:55:57.745Z,81.96
2019-02-17T01:58:27.007Z,81.93
2019-02-17T02:00:56.656Z,81.83
2019-02-17T02:03:25.887Z,81.69
2019-02-17T02:05:55.265Z,81.48
2019-02-17T02:08:24.726Z,81.39
2019-02-17T02:10:54.027Z,81.32
2019-02-17T02:13:23.280Z,81.27
2019-02-17T02:15:52.579Z,81.19
2019-02-17T02:18:21.781Z,81.19
2019-02-17T02:20:51.026Z,81.06
2019-02-17T02:23:20.666Z,80.94
2019-02-17T02:25:49.871Z,80.94
2019-02-17T02:28:19.199Z,80.80
2019-02-17T02:30:48.663Z,80.81
2019-02-17T02:33:17.869Z,80.76
2019-02-17T02:35:47.074Z,80.64
2019-02-17T02:38:16.455Z,80.55
2019-02-17T02:40:46.171Z,80.28
2019-02-17T02:43:15.396Z,80.07
2019-02-17T02:45:44.747Z,79.81
2019-02-17T02:48:13.933Z,79.71
2019-02-17T02:50:43.213Z,79.57
2019-02-17T02:53:12.531Z,79.46
2019-02-17T02:55:41.770Z,79.42
2019-02-17T02:58:11.385Z,79.30
2019-02-17T03:00:40.698Z,79.21
2019-02-17T03:03:09.888Z,79.15
2019-02-17T03:05:44.952Z,79.06
2019-02-17T03:08:14.382Z,78.98
2019-02-17T03:10:43.599Z,78.95
2019-02-17T03:13:13.142Z,78.84
2019-02-17T03:15:42.342Z,78.75
2019-02-17T03:18:11.523Z,78.65
2019-02-17T03:20:40.876Z,78.61
2019-02-17T03:23:10.054Z,78.56
2019-02-17T03:25:39.252Z,78.47
2019-02-17T03:28:08.807Z,78.31
2019-02-17T03:30:38.008Z,78.20
2019-02-17T03:33:07.204Z,78.08
2019-02-17T03:35:36.562Z,78.04
2019-02-17T03:38:05.757Z,77.96
2019-02-17T03:40:35.451Z,77.98
2019-02-17T03:43:04.858Z,78.06
2019-02-17T03:45:34.041Z,78.02
2019-02-17T03:48:03.251Z,77.92
2019-02-17T03:50:32.667Z,77.82
2019-02-17T03:53:01.858Z,77.83
2019-02-17T03:55:31.136Z,77.85
2019-02-17T03:58:00.440Z,77.91
2019-02-17T04:00:29.760Z,77.99
2019-02-17T04:02:58.960Z,77.93
2019-02-17T04:05:28.392Z,77.89
2019-02-17T04:07:57.561Z,77.83
2019-02-17T04:10:26.981Z,77.76
2019-02-17T04:12:56.425Z,77.64
2019-02-17T04:15:25.614Z,77.54
2019-02-17T04:17:54.798Z,77.50
2019-02-17T04:20:24.205Z,77.53
2019-02-17T04:22:53.379Z,77.55
2019-02-17T04:25:22.560Z,77.52
2019-02-17T04:27:52.123Z,77.52
2019-02-17T04:30:29.291Z,77.59
2019-02-17T04:32:52.212Z,77.60
2019-02-17T04:35:21.730Z,77.65
2019-02-17T04:37:50.900Z,77.72
2019-02-17T04:40:20.091Z,77.73
2019-02-17T04:42:49.544Z,77.78
2019-02-17T04:45:18.824Z,77.89
2019-02-17T04:47:48.006Z,77.96
2019-02-17T04:50:17.437Z,77.98
2019-02-17T04:52:46.619Z,78.04
2019-02-17T04:55:15.803Z,77.98
2019-02-17T04:57:45.241Z,77.91
2019-02-17T05:00:14.419Z,77.86
2019-02-17T05:02:43.597Z,77.90
2019-02-17T05:05:12.962Z,77.89
2019-02-17T05:07:42.223Z,77.81
2019-02-17T05:10:11.444Z,77.68
2019-02-17T05:12:40.945Z,77.66
2019-02-17T05:15:10.120Z,77.56
2019-02-17T05:17:39.314Z,77.48
2019-02-17T05:20:08.698Z,77.49
2019-02-17T05:22:39.491Z,77.52
2019-02-17T05:25:08.801Z,77.54
2019-02-17T05:27:38.122Z,77.55
2019-02-17T05:30:08.599Z,77.60
2019-02-17T05:32:37.777Z,77.68
2019-02-17T05:35:07.115Z,77.78
2019-02-17T05:37:36.299Z,77.78
2019-02-17T05:40:05.827Z,77.74
2019-02-17T05:42:35.297Z,77.76
2019-02-17T05:45:04.635Z,77.79
2019-02-17T05:47:33.964Z,77.73
2019-02-17T05:50:03.275Z,77.82
2019-02-17T05:52:33.762Z,77.87
2019-02-17T05:55:03.027Z,77.90
2019-02-17T05:57:32.377Z,77.87
2019-02-17T06:00:01.579Z,77.85
2019-02-17T06:02:30.817Z,77.81
2019-02-17T06:05:00.339Z,77.77
2019-02-17T06:07:29.543Z,77.73
2019-02-17T06:09:58.731Z,77.71
2019-02-17T06:12:28.043Z,77.72
2019-02-17T06:14:57.287Z,77.77
2019-02-17T06:17:26.468Z,77.76
2019-02-17T06:19:55.763Z,77.74
2019-02-17T06:22:24.963Z,77.70
2019-02-17T06:24:54.199Z,77.63
2019-02-17T06:27:23.550Z,77.75
2019-02-17T06:29:52.825Z,77.77
2019-02-17T06:32:22.061Z,77.70
2019-02-17T06:34:51.615Z,77.67
2019-02-17T06:37:20.827Z,77.70
2019-02-17T06:39:50.052Z,77.74
2019-02-17T06:42:19.454Z,77.78
2019-02-17T06:44:48.772Z,77.70
2019-02-17T06:47:23.397Z,77.67
2019-02-17T06:49:52.739Z,77.67
2019-02-17T06:52:22.051Z,77.65
2019-02-17T06:55:04.754Z,77.62
2019-02-17T06:57:38.172Z,77.67
2019-02-17T07:00:21.468Z,77.69
2019-02-17T07:02:50.889Z,77.73
2019-02-17T07:05:37.656Z,77.66
2019-02-17T07:08:08.237Z,77.65
2019-02-17T07:10:37.429Z,77.56
2019-02-17T07:13:06.681Z,77.48
2019-02-17T07:15:35.964Z,77.37
2019-02-17T07:18:06.626Z,77.30
2019-02-17T07:20:35.831Z,77.43
2019-02-17T07:23:05.351Z,78.12
2019-02-17T07:25:34.556Z,79.22
2019-02-17T07:28:03.809Z,80.14
2019-02-17T07:30:33.101Z,80.59
2019-02-17T07:33:02.355Z,80.52
2019-02-17T07:35:31.729Z,80.31
2019-02-17T07:38:01.054Z,79.41
2019-02-17T07:40:30.263Z,78.34
2019-02-17T07:42:59.650Z,77.77
2019-02-17T07:45:29.074Z,77.37
2019-02-17T07:47:58.261Z,76.33
2019-02-17T07:50:27.564Z,75.18
2019-02-17T07:52:57.265Z,73.69
2019-02-17T07:55:26.565Z,72.25
2019-02-17T07:57:55.822Z,70.53
2019-02-17T08:00:25.268Z,68.93
2019-02-17T08:02:54.484Z,67.40
2019-02-17T08:05:23.713Z,65.99
2019-02-17T08:07:52.990Z,64.52
2019-02-17T08:10:22.258Z,63.35
2019-02-17T08:12:51.563Z,61.77
2019-02-17T08:15:20.962Z,60.73
2019-02-17T08:17:50.287Z,59.71
2019-02-17T08:20:19.529Z,58.62
2019-02-17T08:22:48.964Z,57.68
2019-02-17T08:25:21.692Z,57.02
2019-02-17T08:27:49.131Z,56.20
2019-02-17T08:30:18.504Z,55.49
2019-02-17T08:32:47.805Z,54.78
2019-02-17T08:35:17.018Z,54.22
2019-02-17T08:37:46.642Z,52.86
2019-02-17T08:40:16.011Z,52.84
2019-02-17T08:42:45.359Z,52.32
2019-02-17T08:45:14.639Z,51.81
2019-02-17T08:47:43.909Z,51.32
2019-02-17T08:50:13.296Z,50.80
2019-02-17T08:52:42.737Z,50.30
2019-02-17T08:55:12.115Z,49.96
2019-02-17T08:57:41.381Z,49.60
2019-02-17T09:00:12.048Z,49.65
2019-02-17T09:02:41.375Z,49.33
2019-02-17T09:05:10.616Z,48.96
2019-02-17T09:07:40.054Z,48.66
2019-02-17T09:10:10.687Z,48.03
2019-02-17T09:12:40.014Z,47.97
2019-02-17T09:15:10.702Z,47.57
2019-02-17T09:17:39.953Z,47.24
2019-02-17T09:20:10.190Z,46.90
2019-02-17T09:22:39.545Z,46.49
2019-02-17T09:25:09.972Z,45.62
2019-02-17T09:27:39.413Z,45.01
2019-02-17T09:30:16.043Z,44.64
2019-02-17T09:32:45.276Z,44.99
2019-02-17T09:35:14.477Z,45.24
2019-02-17T09:37:44.043Z,45.42
2019-02-17T09:40:13.383Z,45.62
2019-02-17T09:42:42.660Z,45.44
2019-02-17T09:45:13.351Z,44.93
2019-02-17T09:47:42.832Z,44.99
2019-02-17T09:50:12.877Z,44.41
2019-02-17T09:52:42.200Z,43.90
2019-02-17T09:55:11.620Z,43.56
2019-02-17T09:57:41.032Z,43.22
2019-02-17T10:00:11.921Z,42.59
2019-02-17T10:02:41.247Z,42.08
2019-02-17T10:05:10.691Z,41.83
2019-02-17T10:07:40.070Z,41.29
2019-02-17T10:10:11.670Z,41.03
2019-02-17T10:12:41.203Z,40.78
2019-02-17T10:15:11.725Z,40.55
2019-02-17T10:17:41.043Z,39.98
2019-02-17T10:20:10.810Z,39.29
2019-02-17T10:22:40.016Z,38.98
2019-02-17T10:25:09.493Z,38.76
2019-02-17T10:27:38.862Z,38.41
2019-02-17T10:30:09.945Z,38.24
2019-02-17T10:32:39.413Z,37.99
2019-02-17T10:35:09.047Z,38.26
2019-02-17T10:37:38.244Z,37.84
2019-02-17T10:40:09.372Z,37.68
2019-02-17T10:42:38.630Z,37.67
2019-02-17T10:45:08.869Z,37.17
2019-02-17T10:47:38.125Z,36.77
2019-02-17T10:50:08.282Z,36.35
2019-02-17T10:52:37.606Z,35.99
2019-02-17T10:55:07.038Z,35.49
2019-02-17T10:57:36.312Z,35.59
2019-02-17T11:00:08.629Z,35.56
2019-02-17T11:02:46.599Z,35.72
2019-02-17T11:05:08.914Z,35.67
2019-02-17T11:07:38.127Z,35.49
2019-02-17T11:10:08.169Z,35.45
2019-02-17T11:12:37.701Z,35.50
2019-02-17T11:15:08.871Z,35.61
2019-02-17T11:17:38.196Z,35.82
2019-02-17T11:20:07.672Z,35.84
2019-02-17T11:22:36.867Z,35.98
2019-02-17T11:25:06.254Z,35.86
2019-02-17T11:27:35.568Z,35.64
2019-02-17T11:30:05.677Z,35.69
2019-02-17T11:32:35.112Z,35.79
2019-02-17T11:35:04.489Z,35.98
2019-02-17T11:37:33.982Z,36.32
2019-02-17T11:40:03.489Z,36.13
2019-02-17T11:42:32.707Z,35.81
2019-02-17T11:45:02.003Z,35.07
2019-02-17T11:47:32.635Z,34.38
2019-02-17T11:50:01.979Z,34.52
2019-02-17T11:52:31.229Z,34.59
2019-02-17T11:55:01.756Z,34.97
2019-02-17T11:57:31.163Z,35.48
2019-02-17T12:00:00.467Z,35.92
2019-02-17T12:02:30.144Z,36.57
2019-02-17T12:04:59.625Z,37.22
2019-02-17T12:07:28.845Z,37.16
2019-02-17T12:09:58.641Z,36.76
2019-02-17T12:12:27.997Z,36.89
2019-02-17T12:14:57.250Z,36.41
2019-02-17T12:17:26.700Z,36.25
2019-02-17T12:20:00.294Z,35.95
2019-02-17T12:22:34.617Z,35.92
2019-02-17T12:25:07.394Z,36.41
2019-02-17T12:28:04.945Z,36.24
2019-02-17T12:30:36.238Z,35.65
2019-02-17T12:33:05.516Z,35.41
2019-02-17T12:35:35.105Z,35.18
2019-02-17T12:38:04.407Z,35.11
2019-02-17T12:40:34.649Z,34.95
2019-02-17T12:43:04.223Z,35.45
2019-02-17T12:45:33.681Z,35.82
2019-02-17T12:48:02.906Z,36.18
2019-02-17T12:50:32.327Z,36.10
2019-02-17T12:53:02.060Z,35.67
2019-02-17T12:55:31.410Z,35.42
2019-02-17T12:58:00.968Z,35.74
2019-02-17T13:00:30.238Z,35.80
2019-02-17T13:02:59.544Z,36.05
2019-02-17T13:05:29.003Z,36.27
2019-02-17T13:07:58.219Z,36.54
2019-02-17T13:10:27.519Z,36.78
2019-02-17T13:12:57.086Z,37.30
2019-02-17T13:15:26.432Z,37.68
2019-02-17T13:17:55.730Z,37.99
2019-02-17T13:20:25.424Z,38.30
2019-02-17T13:22:54.900Z,37.98
2019-02-17T13:25:24.300Z,38.01
2019-02-17T13:27:58.696Z,37.97
2019-02-17T13:30:28.020Z,38.03
2019-02-17T13:33:01.688Z,38.19
2019-02-17T13:35:31.060Z,38.63
2019-02-17T13:38:00.337Z,39.03
2019-02-17T13:40:29.708Z,39.03
2019-02-17T13:42:59.100Z,38.66
2019-02-17T13:45:28.332Z,38.56
2019-02-17T13:47:57.601Z,39.12
2019-02-17T13:50:27.110Z,39.39
2019-02-17T13:52:56.361Z,39.71
2019-02-17T13:55:26.859Z,39.96
2019-02-17T13:57:56.220Z,40.23
2019-02-17T14:00:25.496Z,40.28
2019-02-17T14:02:54.759Z,40.52
2019-02-17T14:05:24.331Z,40.52
2019-02-17T14:07:53.668Z,40.53
2019-02-17T14:10:22.962Z,40.31
2019-02-17T14:12:52.417Z,40.43
2019-02-17T14:15:21.839Z,40.83
2019-02-17T14:17:51.040Z,40.97
2019-02-17T14:20:20.756Z,41.14
2019-02-17T14:22:50.016Z,41.35
2019-02-17T14:25:19.245Z,41.58
2019-02-17T14:27:48.654Z,41.73
2019-02-17T14:30:18.729Z,42.06
2019-02-17T14:32:48.074Z,42.29
2019-02-17T14:35:17.560Z,42.67
2019-02-17T14:37:46.990Z,42.89
2019-02-17T14:40:16.509Z,43.01
2019-02-17T14:42:46.411Z,43.21
2019-02-17T14:45:15.955Z,43.39
2019-02-17T14:47:45.266Z,43.90
2019-02-17T14:50:14.686Z,44.27
2019-02-17T14:52:44.899Z,44.42
2019-02-17T14:55:14.105Z,44.68
2019-02-17T14:57:43.703Z,44.86
2019-02-17T15:00:13.114Z,44.76
2019-02-17T15:02:42.738Z,44.70
2019-02-17T15:05:12.211Z,44.70
2019-02-17T15:07:41.634Z,45.09
2019-02-17T15:10:11.082Z,45.34
2019-02-17T15:12:40.533Z,45.60
2019-02-17T15:15:10.158Z,45.91
2019-02-17T15:17:39.422Z,46.07
2019-02-17T15:20:10.776Z,46.44
2019-02-17T15:22:40.100Z,46.76
2019-02-17T15:25:10.549Z,46.86
2019-02-17T15:27:40.008Z,47.14
2019-02-17T15:30:11.296Z,47.43
2019-02-17T15:32:40.527Z,47.53
2019-02-17T15:35:09.858Z,47.71
2019-02-17T15:37:39.089Z,47.87
2019-02-17T15:40:08.893Z,47.91
2019-02-17T15:42:38.276Z,48.33
2019-02-17T15:45:08.734Z,48.57
2019-02-17T15:47:37.961Z,49.05
2019-02-17T15:50:08.571Z,49.27
2019-02-17T15:52:37.800Z,49.44
2019-02-17T15:55:07.959Z,49.56
2019-02-17T15:57:37.574Z,49.68
2019-02-17T16:00:09.387Z,49.68
2019-02-17T16:02:38.829Z,49.64
2019-02-17T16:05:08.747Z,49.74
2019-02-17T16:07:38.223Z,49.79
2019-02-17T16:10:08.681Z,49.86
2019-02-17T16:12:38.128Z,50.18
2019-02-17T16:15:09.842Z,50.38
2019-02-17T16:17:39.867Z,50.49
2019-02-17T16:20:11.055Z,50.61
2019-02-17T16:22:40.358Z,50.75
2019-02-17T16:25:09.787Z,50.96
2019-02-17T16:27:39.411Z,51.14
2019-02-17T16:30:11.602Z,51.08
2019-02-17T16:32:40.968Z,51.01
2019-02-17T16:35:10.203Z,50.99
2019-02-17T16:37:39.509Z,51.00
2019-02-17T16:40:11.332Z,50.95
2019-02-17T16:42:40.591Z,51.01
2019-02-17T16:45:11.177Z,51.09
2019-02-17T16:47:40.464Z,51.15
2019-02-17T16:50:12.398Z,51.16
2019-02-17T16:52:41.832Z,51.10
2019-02-17T16:55:11.434Z,51.05
2019-02-17T16:57:41.244Z,51.25
2019-02-17T17:00:15.735Z,51.40
2019-02-17T17:02:45.425Z,51.42
2019-02-17T17:05:14.967Z,51.30
2019-02-17T17:07:44.555Z,51.19
2019-02-17T17:10:14.046Z,51.15
2019-02-17T17:12:43.364Z,51.31
2019-02-17T17:15:12.753Z,51.52
2019-02-17T17:17:42.055Z,51.70
2019-02-17T17:20:11.513Z,51.71
2019-02-17T17:22:40.679Z,51.87
2019-02-17T17:25:10.685Z,52.10
2019-02-17T17:27:41.420Z,52.24
2019-02-17T17:30:11.889Z,52.26
2019-02-17T17:32:41.196Z,52.32
2019-02-17T17:35:11.796Z,52.39
2019-02-17T17:37:41.148Z,52.64
2019-02-17T17:40:11.693Z,52.79
2019-02-17T17:42:44.723Z,52.84
2019-02-17T17:45:14.649Z,52.87
2019-02-17T17:47:43.941Z,52.97
2019-02-17T17:50:14.195Z,52.92
2019-02-17T17:52:43.502Z,53.06
2019-02-17T17:55:13.371Z,53.25
2019-02-17T17:57:42.689Z,53.37
2019-02-17T18:00:14.574Z,53.51
2019-02-17T18:02:43.925Z,53.56
2019-02-17T18:05:13.719Z,53.56
2019-02-17T18:07:43.025Z,53.75
2019-02-17T18:10:15.067Z,53.70
2019-02-17T18:12:44.263Z,53.79
2019-02-17T18:15:13.748Z,53.76
2019-02-17T18:17:53.793Z,53.79
2019-02-17T18:20:16.846Z,53.84
2019-02-17T18:22:46.185Z,53.75
2019-02-17T18:25:15.746Z,53.79
2019-02-17T18:27:45.047Z,53.76
2019-02-17T18:30:16.511Z,53.74
2019-02-17T18:32:47.285Z,53.81
2019-02-17T18:35:21.554Z,53.79
2019-02-17T18:37:51.290Z,53.74
2019-02-17T18:40:20.504Z,53.69
2019-02-17T18:42:49.792Z,53.74
2019-02-17T18:45:20.652Z,53.64
2019-02-17T18:47:49.715Z,53.70
2019-02-17T18:50:18.945Z,53.63
2019-02-17T18:52:48.308Z,53.46
2019-02-17T18:55:19.868Z,53.50
2019-02-17T18:57:51.010Z,53.41
2019-02-17T19:00:20.440Z,53.36
2019-02-17T19:02:49.685Z,53.32
2019-02-17T19:05:21.696Z,53.27
2019-02-17T19:07:50.135Z,53.27
2019-02-17T19:10:20.214Z,53.25
2019-02-17T19:12:49.412Z,53.31
2019-02-17T19:15:19.827Z,53.15
2019-02-17T19:17:49.285Z,53.18
2019-02-17T19:20:19.555Z,53.27
2019-02-17T19:22:48.865Z,53.30
2019-02-17T19:25:18.171Z,53.29
2019-02-17T19:27:47.373Z,53.33
2019-02-17T19:30:16.754Z,53.36
2019-02-17T19:32:46.871Z,53.55
2019-02-17T19:35:16.202Z,53.56
2019-02-17T19:37:45.496Z,53.59
2019-02-17T19:40:14.858Z,53.64
2019-02-17T19:42:44.199Z,53.75
2019-02-17T19:45:13.560Z,53.87
2019-02-17T19:47:43.000Z,53.83
2019-02-17T19:50:12.876Z,53.86
2019-02-17T19:52:42.139Z,53.97
2019-02-17T19:55:11.910Z,54.08
2019-02-17T19:57:41.135Z,54.10
2019-02-17T20:00:12.117Z,54.14
2019-02-17T20:02:51.414Z,54.19
2019-02-17T20:05:22.237Z,54.22
2019-02-17T20:07:53.905Z,54.21
2019-02-17T20:10:23.324Z,54.35
2019-02-17T20:12:52.554Z,54.43
2019-02-17T20:15:23.644Z,54.45
2019-02-17T20:17:53.222Z,54.50
2019-02-17T20:20:22.974Z,54.68
2019-02-17T20:22:54.303Z,54.76
2019-02-17T20:25:23.566Z,54.74
2019-02-17T20:27:52.792Z,54.84
2019-02-17T20:30:22.178Z,54.91
2019-02-17T20:32:51.403Z,54.97
2019-02-17T20:35:20.667Z,54.79
2019-02-17T20:37:50.118Z,54.93
2019-02-17T20:40:19.406Z,55.03
2019-02-17T20:42:48.668Z,55.15
2019-02-17T20:45:18.286Z,55.14
2019-02-17T20:47:52.762Z,55.10
2019-02-17T20:50:22.338Z,55.14
2019-02-17T20:52:53.653Z,55.01
2019-02-17T20:55:29.691Z,54.99
2019-02-17T20:57:58.974Z,55.01
2019-02-17T21:00:29.171Z,55.05
2019-02-17T21:02:59.758Z,55.13
2019-02-17T21:05:28.974Z,55.31
2019-02-17T21:07:58.167Z,55.37
2019-02-17T21:10:27.483Z,55.45
2019-02-17T21:12:56.721Z,55.47
2019-02-17T21:15:26.003Z,55.53
2019-02-17T21:17:55.534Z,55.61
2019-02-17T21:20:24.806Z,55.65
2019-02-17T21:22:54.112Z,55.59
2019-02-17T21:25:23.687Z,55.55
2019-02-17T21:27:52.925Z,55.65
2019-02-17T21:30:22.157Z,55.64
2019-02-17T21:32:51.570Z,55.66
2019-02-17T21:35:20.768Z,55.65
2019-02-17T21:37:49.995Z,55.68
2019-02-17T21:40:19.472Z,55.74
2019-02-17T21:42:48.786Z,55.72
2019-02-17T21:45:17.982Z,55.68
2019-02-17T21:47:49.327Z,55.80
2019-02-17T21:50:18.526Z,56.02
2019-02-17T21:52:47.752Z,56.13
2019-02-17T21:55:17.170Z,56.19
2019-02-17T21:57:46.370Z,56.31
2019-02-17T22:00:16.803Z,56.48
2019-02-17T22:02:46.238Z,56.68
2019-02-17T22:05:15.417Z,56.68
2019-02-17T22:07:44.931Z,56.77
2019-02-17T22:10:14.957Z,56.83
2019-02-17T22:12:44.167Z,56.88
2019-02-17T22:15:14.737Z,57.00
2019-02-17T22:17:44.178Z,57.02
2019-02-17T22:20:13.503Z,56.96
2019-02-17T22:22:42.693Z,57.00
2019-02-17T22:25:13.724Z,57.01
2019-02-17T22:27:42.917Z,57.04
2019-02-17T22:30:12.138Z,57.08
2019-02-17T22:32:41.723Z,57.10
2019-02-17T22:35:11.320Z,57.17
2019-02-17T22:37:40.536Z,57.09
2019-02-17T22:40:10.476Z,57.09
2019-02-17T22:42:39.717Z,57.18
2019-02-17T22:45:09.290Z,57.26
2019-02-17T22:47:38.661Z,57.34
2019-02-17T22:50:08.760Z,57.46
2019-02-17T22:52:37.962Z,57.58
2019-02-17T22:55:08.646Z,57.75
2019-02-17T22:57:37.918Z,57.90
2019-02-17T23:00:16.745Z,57.98
2019-02-17T23:02:46.111Z,58.12
2019-02-17T23:05:15.372Z,58.23
2019-02-17T23:07:44.948Z,58.49
2019-02-17T23:10:14.222Z,58.63
2019-02-17T23:12:43.589Z,58.72
2019-02-17T23:15:13.132Z,58.89
2019-02-17T23:17:42.319Z,58.97
2019-02-17T23:20:11.509Z,59.11
2019-02-17T23:22:41.034Z,59.24
2019-02-17T23:25:10.646Z,59.40
2019-02-17T23:27:39.958Z,59.66
2019-02-17T23:30:09.335Z,59.93
2019-02-17T23:32:38.526Z,60.08
2019-02-17T23:35:07.719Z,60.27
2019-02-17T23:37:37.152Z,60.45
2019-02-17T23:40:07.547Z,60.53
2019-02-17T23:42:39.526Z,60.64
2019-02-17T23:45:09.019Z,60.71
2019-02-17T23:47:38.211Z,60.83
2019-02-17T23:50:07.821Z,60.96
2019-02-17T23:52:37.070Z,61.00
2019-02-17T23:55:06.382Z,61.06
2019-02-17T23:57:35.842Z,61.10
